createdAt,value
2022-08-25T00:00:44.933Z,101077.22
2022-08-25T00:03:47.684Z,101088.81
2022-08-25T00:06:51.175Z,101100.09
2022-08-25T00:09:53.227Z,101097.66
2022-08-25T00:12:55.375Z,101086.41
2022-08-25T00:15:57.769Z,101087.72
2022-08-25T00:19:04.430Z,101091.84
2022-08-25T00:22:08.492Z,101092.06
2022-08-25T00:25:10.543Z,101092.81
2022-08-25T00:28:13.011Z,101092.06
2022-08-25T00:31:20.273Z,101093.72
2022-08-25T00:34:29.807Z,101096.38
2022-08-25T00:37:31.914Z,101089.72
2022-08-25T00:40:36.598Z,101094.13
2022-08-25T00:43:41.790Z,101091.16
2022-08-25T00:46:50.671Z,101074.38
2022-08-25T00:49:58.068Z,101086.56
2022-08-25T00:53:03.436Z,101078.81
2022-08-25T00:56:06.107Z,101081.56
2022-08-25T00:59:08.531Z,101080.78
2022-08-25T01:02:13.952Z,101081.88
2022-08-25T01:05:18.553Z,101070.53
2022-08-25T01:08:24.257Z,101069.03
2022-08-25T01:11:27.946Z,101074.66
2022-08-25T01:14:32.635Z,101080.72
2022-08-25T01:17:47.028Z,101073.91
2022-08-25T01:20:54.002Z,101062.91
2022-08-25T01:23:58.781Z,101051.31
2022-08-25T01:27:01.477Z,101057.41
2022-08-25T01:30:04.310Z,101055.81
2022-08-25T01:33:08.755Z,101060.50
2022-08-25T01:36:10.861Z,101063.25
2022-08-25T01:39:14.631Z,101050.72
2022-08-25T01:42:42.170Z,101060.50
2022-08-25T01:45:47.765Z,101050.25
2022-08-25T01:48:49.975Z,101052.72
2022-08-25T01:52:21.436Z,101057.91
2022-08-25T01:55:24.070Z,101056.47
2022-08-25T01:58:29.723Z,101059.47
2022-08-25T02:01:32.424Z,101054.22
2022-08-25T02:04:35.538Z,101061.63
2022-08-25T02:07:38.545Z,101048.63
2022-08-25T02:10:41.582Z,101059.69
2022-08-25T02:13:43.702Z,101049.72
2022-08-25T02:16:49.264Z,101049.59
2022-08-25T02:19:51.888Z,101052.34
2022-08-25T02:22:57.104Z,101048.03
2022-08-25T02:25:59.367Z,101045.63
2022-08-25T02:29:01.523Z,101039.22
2022-08-25T02:32:04.475Z,101050.28
2022-08-25T02:35:07.925Z,101054.94
2022-08-25T02:38:10.009Z,101053.28
2022-08-25T02:41:15.545Z,101047.44
2022-08-25T02:44:17.851Z,101056.03
2022-08-25T02:47:26.780Z,101056.19
2022-08-25T02:50:29.934Z,101058.09
2022-08-25T02:53:33.450Z,101064.19
2022-08-25T02:56:35.598Z,101074.59
2022-08-25T02:59:39.279Z,101054.91
2022-08-25T03:02:42.792Z,101068.28
2022-08-25T03:05:45.251Z,101071.50
2022-08-25T03:08:47.278Z,101077.09
2022-08-25T03:11:49.450Z,101070.19
2022-08-25T03:14:51.643Z,101070.41
2022-08-25T03:17:55.612Z,101081.00
2022-08-25T03:20:58.404Z,101085.69
2022-08-25T03:24:00.918Z,101088.44
2022-08-25T03:27:03.179Z,101088.09
2022-08-25T03:30:07.023Z,101075.84
2022-08-25T03:33:09.200Z,101100.31
2022-08-25T03:36:14.728Z,101099.00
2022-08-25T03:39:18.490Z,101098.31
2022-08-25T03:42:20.747Z,101070.16
2022-08-25T03:45:25.046Z,101104.03
2022-08-25T03:48:27.295Z,101106.31
2022-08-25T03:51:35.789Z,101109.16
2022-08-25T03:54:37.925Z,101105.44
2022-08-25T03:57:40.388Z,101104.38
2022-08-25T04:00:42.571Z,101113.22
2022-08-25T04:03:45.122Z,101115.16
2022-08-25T04:06:47.617Z,101106.25
2022-08-25T04:09:51.051Z,101108.81
2022-08-25T04:12:53.186Z,101118.25
2022-08-25T04:15:55.247Z,101108.44
2022-08-25T04:18:59.308Z,101103.66
2022-08-25T04:22:01.484Z,101108.34
2022-08-25T04:25:07.229Z,101115.38
2022-08-25T04:28:10.518Z,101108.00
2022-08-25T04:31:15.702Z,101112.66
2022-08-25T04:34:30.401Z,101111.84
2022-08-25T04:37:33.626Z,101112.22
2022-08-25T04:40:35.891Z,101111.78
2022-08-25T04:43:39.314Z,101113.69
2022-08-25T04:46:43.432Z,101114.63
2022-08-25T04:49:45.553Z,101112.72
2022-08-25T04:52:47.657Z,101114.38
2022-08-25T04:55:50.314Z,101100.66
2022-08-25T04:58:53.672Z,101108.53
2022-08-25T05:01:57.449Z,101108.44
2022-08-25T05:05:04.107Z,101108.44
2022-08-25T05:08:06.975Z,101111.41
2022-08-25T05:11:13.125Z,101111.41
2022-08-25T05:14:18.357Z,101107.44
2022-08-25T05:17:20.887Z,101101.56
2022-08-25T05:20:26.788Z,101110.78
2022-08-25T05:23:29.260Z,101110.06
2022-08-25T05:26:32.758Z,101105.00
2022-08-25T05:29:35.004Z,101092.81
2022-08-25T05:32:37.462Z,101098.41
2022-08-25T05:35:40.284Z,101098.28
2022-08-25T05:38:42.885Z,101096.63
2022-08-25T05:41:45.027Z,101073.00
2022-08-25T05:44:47.566Z,101094.91
2022-08-25T05:47:50.050Z,101082.41
2022-08-25T05:50:53.744Z,101086.09
2022-08-25T05:53:55.801Z,101095.91
2022-08-25T05:56:58.759Z,101088.63
2022-08-25T06:00:01.376Z,101080.75
2022-08-25T06:03:03.524Z,101084.66
2022-08-25T06:06:07.741Z,101086.13
2022-08-25T06:09:10.571Z,101094.91
2022-08-25T06:12:12.897Z,101086.56
2022-08-25T06:15:21.709Z,101085.59
2022-08-25T06:18:23.886Z,101086.69
2022-08-25T06:21:25.960Z,101092.53
2022-08-25T06:24:29.822Z,101090.94
2022-08-25T06:27:32.003Z,101072.44
2022-08-25T06:30:34.073Z,101084.97
2022-08-25T06:33:36.136Z,101089.72
2022-08-25T06:36:38.931Z,101083.88
2022-08-25T06:39:41.743Z,101072.34
2022-08-25T06:42:48.673Z,101091.38
2022-08-25T06:45:50.886Z,101078.13
2022-08-25T06:48:54.781Z,101083.13
2022-08-25T06:51:58.458Z,101085.09
2022-08-25T06:55:00.638Z,101083.41
2022-08-25T06:58:04.890Z,101052.75
2022-08-25T07:01:25.788Z,101091.56
2022-08-25T07:04:28.073Z,101057.81
2022-08-25T07:07:43.025Z,101086.00
2022-08-25T07:10:47.007Z,101062.16
2022-08-25T07:13:51.280Z,101078.34
2022-08-25T07:16:53.518Z,101081.44
2022-08-25T07:19:57.558Z,101077.03
2022-08-25T07:23:00.239Z,101067.34
2022-08-25T07:26:36.859Z,101072.09
2022-08-25T07:33:06.375Z,101060.09
2022-08-25T07:36:09.184Z,101054.34
2022-08-25T07:39:12.090Z,101053.28
2022-08-25T07:42:14.098Z,101045.84
2022-08-25T07:45:20.800Z,101046.69
2022-08-25T07:48:23.320Z,101026.31
2022-08-25T07:54:35.065Z,101032.63
2022-08-25T07:57:40.229Z,101029.03
2022-08-25T08:00:42.513Z,101027.44
2022-08-25T08:03:50.860Z,101023.94
2022-08-25T08:06:53.812Z,101017.09
2022-08-25T08:10:18.961Z,101008.91
2022-08-25T08:13:18.915Z,101011.16
2022-08-25T08:16:26.096Z,101015.06
2022-08-25T08:19:28.465Z,100996.81
2022-08-25T08:22:30.875Z,101023.47
2022-08-25T08:25:33.045Z,101009.97
2022-08-25T08:28:35.609Z,101014.22
2022-08-25T08:31:38.710Z,101002.94
2022-08-25T08:34:41.868Z,100986.84
2022-08-25T08:37:46.635Z,100994.66
2022-08-25T08:41:54.243Z,101003.00
2022-08-25T08:45:11.722Z,101005.56
2022-08-25T08:48:50.336Z,100998.47
2022-08-25T08:51:59.602Z,100989.31
2022-08-25T08:55:09.746Z,100982.28
2022-08-25T08:58:26.185Z,100990.09
2022-08-25T09:01:35.013Z,100986.06
2022-08-25T09:04:57.781Z,100973.69
2022-08-25T09:08:10.482Z,100966.56
2022-08-25T09:11:38.451Z,100960.91
2022-08-25T09:15:02.220Z,100962.13
2022-08-25T09:18:28.470Z,100963.25
2022-08-25T09:21:43.529Z,100951.13
2022-08-25T09:25:08.831Z,100944.84
2022-08-25T09:28:41.213Z,100947.94
2022-08-25T09:31:43.445Z,100937.56
2022-08-25T09:34:49.023Z,100925.53
2022-08-25T09:37:57.131Z,100924.78
2022-08-25T09:41:01.944Z,100929.81
2022-08-25T09:44:04.494Z,100914.31
2022-08-25T09:47:21.979Z,100898.31
2022-08-25T09:50:24.044Z,100910.50
2022-08-25T09:53:27.840Z,100906.09
2022-08-25T09:56:34.441Z,100896.72
2022-08-25T09:59:37.372Z,100899.47
2022-08-25T10:02:40.220Z,100892.38
2022-08-25T10:06:07.856Z,100890.16
2022-08-25T10:09:27.267Z,100886.44
2022-08-25T10:12:37.102Z,100869.13
2022-08-25T10:15:45.680Z,100864.50
2022-08-25T10:19:06.841Z,100862.00
2022-08-25T10:22:10.876Z,100862.88
2022-08-25T10:25:15.313Z,100847.38
2022-08-25T10:28:32.639Z,100854.34
2022-08-25T10:31:52.067Z,100850.50
2022-08-25T10:34:58.142Z,100845.03
2022-08-25T10:38:35.231Z,100850.28
2022-08-25T10:41:58.978Z,100826.25
2022-08-25T10:45:26.913Z,100838.97
2022-08-25T10:48:55.445Z,100845.28
2022-08-25T10:52:07.693Z,100846.66
2022-08-25T10:55:48.547Z,100846.44
2022-08-25T10:59:06.429Z,100846.16
2022-08-25T11:02:27.054Z,100829.03
2022-08-25T11:05:37.030Z,100835.09
2022-08-25T11:08:53.349Z,100826.56
2022-08-25T11:12:00.409Z,100832.06
2022-08-25T11:15:09.213Z,100825.97
2022-08-25T11:18:15.179Z,100812.16
2022-08-25T11:21:31.623Z,100818.25
2022-08-25T11:24:43.328Z,100795.84
2022-08-25T11:27:55.950Z,100789.22
2022-08-25T11:31:00.904Z,100791.75
2022-08-25T11:34:02.948Z,100784.53
2022-08-25T11:37:21.496Z,100787.31
2022-08-25T11:40:33.126Z,100774.88
2022-08-25T11:43:57.577Z,100772.09
2022-08-25T11:46:59.515Z,100786.47
2022-08-25T11:50:30.330Z,100767.94
2022-08-25T11:53:39.014Z,100766.59
2022-08-25T11:56:54.568Z,100761.59
2022-08-25T12:00:14.843Z,100759.13
2022-08-25T12:03:34.891Z,100758.56
2022-08-25T12:06:36.852Z,100759.38
2022-08-25T12:09:52.026Z,100750.78
2022-08-25T12:13:08.058Z,100744.16
2022-08-25T12:16:32.506Z,100745.81
2022-08-25T12:19:34.487Z,100753.84
2022-08-25T12:22:36.451Z,100756.63
2022-08-25T12:25:47.263Z,100750.00
2022-08-25T12:28:52.305Z,100750.00
2022-08-25T12:31:59.165Z,100746.69
2022-08-25T12:35:33.991Z,100750.81
2022-08-25T12:38:43.294Z,100748.34
2022-08-25T12:45:33.910Z,100751.34
2022-08-25T12:48:36.023Z,100741.13
2022-08-25T12:51:48.817Z,100741.13
2022-08-25T12:55:05.267Z,100745.28
2022-08-25T12:58:07.720Z,100736.97
2022-08-25T13:01:32.990Z,100742.78
2022-08-25T13:04:38.501Z,100737.78
2022-08-25T13:07:56.787Z,100743.88
2022-08-25T13:11:09.601Z,100737.53
2022-08-25T13:14:17.949Z,100748.53
2022-08-25T13:17:30.139Z,100746.91
2022-08-25T13:20:36.064Z,100748.56
2022-08-25T13:23:43.003Z,100732.28
2022-08-25T13:26:48.311Z,100733.09
2022-08-25T13:29:55.878Z,100738.06
2022-08-25T13:32:58.930Z,100733.59
2022-08-25T13:36:21.013Z,100742.72
2022-08-25T13:39:45.286Z,100741.88
2022-08-25T13:42:55.639Z,100735.25
2022-08-25T13:45:58.356Z,100731.34
2022-08-25T13:49:06.786Z,100735.53
2022-08-25T13:52:29.724Z,100722.59
2022-08-25T13:55:51.712Z,100728.94
2022-08-25T13:58:57.036Z,100738.56
2022-08-25T14:02:00.197Z,100736.88
2022-08-25T14:05:02.938Z,100715.84
2022-08-25T14:08:25.300Z,100725.84
2022-08-25T14:11:30.811Z,100726.16
2022-08-25T14:14:35.276Z,100721.72
2022-08-25T14:17:40.943Z,100721.69
2022-08-25T14:20:47.869Z,100710.94
2022-08-25T14:23:50.107Z,100710.94
2022-08-25T14:26:54.271Z,100709.78
2022-08-25T14:29:56.929Z,100705.41
2022-08-25T14:32:59.397Z,100708.44
2022-08-25T14:36:05.489Z,100713.44
2022-08-25T14:39:08.637Z,100707.09
2022-08-25T14:42:11.952Z,100710.44
2022-08-25T14:45:16.238Z,100711.50
2022-08-25T14:48:28.457Z,100701.28
2022-08-25T14:51:32.673Z,100722.25
2022-08-25T14:54:37.623Z,100705.97
2022-08-25T14:57:40.106Z,100706.22
2022-08-25T15:00:44.810Z,100716.22
2022-08-25T15:03:48.933Z,100717.91
2022-08-25T15:06:57.502Z,100726.22
2022-08-25T15:10:00.441Z,100728.41
2022-08-25T15:13:02.517Z,100708.78
2022-08-25T15:16:05.358Z,100719.03
2022-08-25T15:19:09.850Z,100717.38
2022-08-25T15:22:12.002Z,100715.72
2022-08-25T15:25:14.790Z,100713.78
2022-08-25T15:28:17.620Z,100724.56
2022-08-25T15:31:24.527Z,100719.59
2022-08-25T15:34:30.201Z,100721.81
2022-08-25T15:37:32.182Z,100714.34
2022-08-25T15:40:35.402Z,100712.16
2022-08-25T15:43:37.966Z,100710.47
2022-08-25T15:46:41.603Z,100716.56
2022-08-25T15:49:47.425Z,100715.19
2022-08-25T15:52:50.180Z,100715.47
2022-08-25T15:55:54.070Z,100705.25
2022-08-25T15:58:56.155Z,100715.47
2022-08-25T16:01:58.466Z,100709.09
2022-08-25T16:05:01.183Z,100708.00
2022-08-25T16:08:05.000Z,100708.53
2022-08-25T16:14:22.386Z,100690.28
2022-08-25T16:17:24.460Z,100678.41
2022-08-25T16:20:31.895Z,100707.69
2022-08-25T16:23:35.002Z,100704.94
2022-08-25T16:26:47.982Z,100706.31
2022-08-25T16:29:50.582Z,100709.59
2022-08-25T16:32:54.880Z,100717.06
2022-08-25T16:36:22.476Z,100721.72
2022-08-25T16:39:26.108Z,100715.94
2022-08-25T16:42:28.568Z,100718.13
2022-08-25T16:45:33.236Z,100707.34
2022-08-25T16:48:37.945Z,100706.47
2022-08-25T16:51:41.016Z,100716.13
2022-08-25T16:55:01.833Z,100710.56
2022-08-25T16:58:05.567Z,100714.16
2022-08-25T17:01:14.044Z,100711.63
2022-08-25T17:04:16.406Z,100702.50
2022-08-25T17:07:23.653Z,100715.41
2022-08-25T17:10:27.137Z,100709.91
2022-08-25T17:13:31.385Z,100727.81
2022-08-25T17:16:36.526Z,100728.34
2022-08-25T17:19:41.310Z,100725.00
2022-08-25T17:22:46.378Z,100713.56
2022-08-25T17:25:52.545Z,100742.53
2022-08-25T17:28:54.928Z,100731.44
2022-08-25T17:31:59.250Z,100741.13
2022-08-25T17:35:01.596Z,100743.56
2022-08-25T17:38:07.139Z,100740.78
2022-08-25T17:41:11.822Z,100746.00
2022-08-25T17:44:14.546Z,100739.91
2022-08-25T17:47:17.711Z,100747.59
2022-08-25T17:50:19.722Z,100745.66
2022-08-25T17:53:22.256Z,100744.53
2022-08-25T17:56:27.212Z,100756.38
2022-08-25T17:59:32.571Z,100746.94
2022-08-25T18:02:34.736Z,100752.19
2022-08-25T18:05:38.509Z,100751.06
2022-08-25T18:08:44.424Z,100757.66
2022-08-25T18:11:53.844Z,100752.41
2022-08-25T18:14:55.991Z,100747.38
2022-08-25T18:18:02.025Z,100756.22
2022-08-25T18:21:11.983Z,100754.00
2022-08-25T18:24:14.120Z,100767.78
2022-08-25T18:27:16.612Z,100768.28
2022-08-25T18:30:21.850Z,100769.63
2022-08-25T18:33:30.175Z,100766.53
2022-08-25T18:36:32.741Z,100770.63
2022-08-25T18:39:59.539Z,100767.88
2022-08-25T18:43:07.702Z,100758.75
2022-08-25T18:46:10.039Z,100758.69
2022-08-25T18:49:15.691Z,100771.13
2022-08-25T18:52:18.208Z,100763.38
2022-08-25T18:55:20.937Z,100753.09
2022-08-25T18:58:24.422Z,100771.59
2022-08-25T19:01:26.604Z,100763.28
2022-08-25T19:04:32.120Z,100771.81
2022-08-25T19:07:34.198Z,100772.63
2022-08-25T19:10:37.493Z,100772.63
2022-08-25T19:13:41.342Z,100774.78
2022-08-25T19:16:43.596Z,100774.25
2022-08-25T19:19:45.831Z,100773.94
2022-08-25T19:22:48.009Z,100779.16
2022-08-25T19:25:50.324Z,100776.94
2022-08-25T19:28:53.292Z,100785.78
2022-08-25T19:31:56.896Z,100785.50
2022-08-25T19:35:03.888Z,100783.00
2022-08-25T19:38:33.241Z,100776.69
2022-08-25T19:41:34.389Z,100771.69
2022-08-25T19:44:36.595Z,100779.38
2022-08-25T19:47:38.717Z,100781.03
2022-08-25T19:50:40.853Z,100776.06
2022-08-25T19:53:43.249Z,100785.66
2022-08-25T19:56:54.464Z,100776.53
2022-08-25T19:59:57.148Z,100781.94
2022-08-25T20:03:00.715Z,100774.06
2022-08-25T20:06:03.074Z,100784.00
2022-08-25T20:09:06.309Z,100783.50
2022-08-25T20:12:11.907Z,100772.97
2022-08-25T20:15:16.501Z,100786.81
2022-08-25T20:18:19.221Z,100777.47
2022-08-25T20:21:21.570Z,100774.22
2022-08-25T20:24:42.681Z,100763.72
2022-08-25T20:27:52.430Z,100769.28
2022-08-25T20:30:54.863Z,100768.97
2022-08-25T20:34:00.313Z,100772.03
2022-08-25T20:37:05.767Z,100772.28
2022-08-25T20:40:09.719Z,100768.91
2022-08-25T20:43:12.050Z,100770.22
2022-08-25T20:46:14.419Z,100774.63
2022-08-25T20:49:16.697Z,100772.41
2022-08-25T20:52:21.275Z,100777.91
2022-08-25T20:55:23.630Z,100767.34
2022-08-25T20:58:26.525Z,100781.44
2022-08-25T21:01:39.698Z,100761.78
2022-08-25T21:04:50.131Z,100777.94
2022-08-25T21:07:52.675Z,100771.63
2022-08-25T21:10:54.840Z,100786.59
2022-08-25T21:13:58.710Z,100774.31
2022-08-25T21:17:01.479Z,100769.03
2022-08-25T21:20:06.814Z,100772.19
2022-08-25T21:23:09.007Z,100767.28
2022-08-25T21:26:18.398Z,100780.69
2022-08-25T21:29:23.774Z,100770.78
2022-08-25T21:32:26.405Z,100776.78
2022-08-25T21:35:28.674Z,100772.28
2022-08-25T21:38:33.255Z,100768.16
2022-08-25T21:41:39.249Z,100782.28
2022-08-25T21:44:41.534Z,100777.56
2022-08-25T21:47:44.694Z,100782.22
2022-08-25T21:50:46.762Z,100781.03
2022-08-25T21:53:50.980Z,100792.03
2022-08-25T21:56:57.972Z,100784.13
2022-08-25T21:59:59.988Z,100785.97
2022-08-25T22:03:03.314Z,100781.25
2022-08-25T22:06:07.205Z,100781.28
2022-08-25T22:09:12.918Z,100770.72
2022-08-25T22:12:16.137Z,100767.06
2022-08-25T22:15:19.093Z,100760.31
2022-08-25T22:18:22.370Z,100757.56
2022-08-25T22:21:24.505Z,100769.66
2022-08-25T22:24:28.213Z,100765.13
2022-08-25T22:27:31.869Z,100773.06
2022-08-25T22:30:35.521Z,100762.66
2022-08-25T22:33:40.304Z,100751.50
2022-08-25T22:36:43.051Z,100751.84
2022-08-25T22:39:50.411Z,100746.16
2022-08-25T22:42:53.431Z,100753.31
2022-08-25T22:46:06.059Z,100748.09
2022-08-25T22:49:09.597Z,100745.91
2022-08-25T22:52:12.800Z,100740.53
2022-08-25T22:55:16.379Z,100748.66
2022-08-25T22:58:18.846Z,100733.19
2022-08-25T23:01:21.022Z,100728.09
2022-08-25T23:04:23.255Z,100736.59
2022-08-25T23:07:28.321Z,100728.88
2022-08-25T23:10:32.618Z,100728.81
2022-08-25T23:13:34.817Z,100731.78
2022-08-25T23:16:42.894Z,100725.28
2022-08-25T23:19:44.917Z,100715.72
2022-08-25T23:22:50.152Z,100709.28
2022-08-25T23:25:55.837Z,100722.84
2022-08-25T23:28:58.745Z,100722.34
2022-08-25T23:32:00.933Z,100707.69
2022-08-25T23:35:03.087Z,100725.09
2022-08-25T23:38:05.062Z,100724.03
2022-08-25T23:41:09.325Z,100714.97
2022-08-25T23:44:17.132Z,100709.09
2022-08-25T23:47:19.760Z,100716.09
2022-08-25T23:50:22.339Z,100712.53
2022-08-25T23:53:25.057Z,100723.25
2022-08-25T23:56:28.102Z,100721.44
2022-08-25T23:59:33.204Z,100724.19
